Flight Track Log - Related Links

Times and Time Zones

All times are in EDT time to prevent confusion due to time zone crossing. See the NKS612 flight status page for this flight to view local times or setup timezone preferences in your user account.


Time Position Orientation Groundspeed Altitude Reporting Facility
EDT Latitude Longitude Course Direction KTS MPH feet Rate Location/Type
Wed 07:39:39 AM 44.8833 -93.3000 184° South 207 238 3,300  Level Minneapolis TRACON
Wed 07:40:50 AM 44.8003 -93.3081 184° South 281 323 6,600 3,409 Climbing Minneapolis Center
Wed 07:41:51 AM 44.7169 -93.2564 156° South 287 330 10,800 3,885 Climbing Minneapolis Center
Wed 07:42:52 AM 44.6506 -93.2072 152° Southeast 277 319 14,500 2,902 Climbing Minneapolis Center
Wed 07:43:53 AM 44.5842 -93.1583 152° Southeast 276 318 16,700 2,132 Climbing Minneapolis Center
Wed 07:44:53 AM 44.5261 -93.0719 133° Southeast 314 361 18,800 2,083 Climbing Minneapolis Center
Wed 07:45:54 AM 44.4758 -92.9617 123° Southeast 336 387 20,900 1,869 Climbing Minneapolis Center
Wed 07:46:55 AM 44.4233 -92.8489 123° Southeast 346 398 22,600 1,377 Climbing Minneapolis Center
Wed 07:47:56 AM 44.3661 -92.7275 123° Southeast 370 426 23,700 1,230 Climbing Minneapolis Center
Wed 07:48:57 AM 44.3064 -92.5986 123° Southeast 393 452 25,100 1,574 Climbing Minneapolis Center
Wed 07:49:58 AM 44.2308 -92.4411 124° Southeast 408 470 26,900 1,574 Climbing Minneapolis Center
Wed 07:50:59 AM 44.1672 -92.3078 124° Southeast 414 476 28,300 1,230 Climbing Minneapolis Center
Wed 07:52:00 AM 44.1011 -92.1697 124° Southeast 426 490 29,400 1,240 Climbing Minneapolis Center
Wed 07:53:00 AM 44.0336 -92.0275 123° Southeast 440 506 30,800 793 Climbing Minneapolis Center
Wed 07:54:01 AM 43.9658 -91.8858 124° Southeast 441 507 31,000 98 Climbing Minneapolis Center
Wed 07:55:02 AM 43.8969 -91.7461 124° Southeast 442 509 31,000  Level Minneapolis Center
Wed 07:56:03 AM 43.8356 -91.6161 123° Southeast 439 505 31,000  Level Minneapolis Center
Wed 07:57:04 AM 43.7675 -91.4769 124° Southeast 438 504 31,000  Level Minneapolis Center
Wed 07:58:05 AM 43.6997 -91.3394 124° Southeast 436 502 31,000  Level Minneapolis Center
Wed 07:59:06 AM 43.6197 -91.1756 124° Southeast 433 498 31,000  Level Minneapolis Center
Wed 08:00:08 AM 43.5522 -91.0408 125° Southeast 430 495 31,000  Level Minneapolis Center
Wed 08:01:09 AM 43.4844 -90.9039 124° Southeast 432 497 31,000  Level Minneapolis Center
Wed 08:02:10 AM 43.4150 -90.7653 125° Southeast 438 504 31,000  Level Minneapolis Center
Wed 08:03:11 AM 43.3436 -90.6236 125° Southeast 447 514 31,000  Level Minneapolis Center
Wed 08:04:12 AM 43.2722 -90.4833 125° Southeast 450 518 31,000  Level Minneapolis Center
Wed 08:05:13 AM 43.2017 -90.3442 125° Southeast 449 517 31,000 -393 Level Minneapolis Center
Wed 08:06:14 AM 43.1289 -90.2022 125° Southeast 444 511 30,200 -885 Descending Minneapolis Center
Wed 08:07:15 AM 43.0617 -90.0711 125° Southeast 428 493 29,200 -1,131 Descending Minneapolis Center
Wed 08:08:16 AM 42.9831 -89.9169 125° Southeast 426 490 27,900 -1,574 Descending Minneapolis Center
Wed 08:09:17 AM 42.9150 -89.7878 126° Southeast 423 487 26,000 -1,800 Descending Minneapolis Center
Wed 08:10:26 AM 42.8369 -89.6383 125° Southeast 416 479 24,000 -1,008 Descending Chicago Center
Wed 08:11:28 AM 42.7736 -89.5169 125° Southeast 396 456 23,800 -968 Descending Chicago Center
Wed 08:12:30 AM 42.7072 -89.3903 125° Southeast 408 470 22,000 -871 Descending Chicago Center
Wed 08:13:32 AM 42.6400 -89.2600 125° Southeast 422 486 22,000 -823 Level Chicago Center
Wed 08:14:34 AM 42.5722 -89.1319 126° Southeast 419 482 20,300 -1,951 Descending Chicago Center
Wed 08:15:35 AM 42.5250 -88.9950 115° Southeast 404 465 18,000 -3,073 Descending Chicago Center
Wed 08:16:37 AM 42.4786 -88.8436 113° Southeast 374 430 14,000 -3,532 Descending Chicago Center
Wed 08:17:39 AM 42.4425 -88.7208 112° Southeast 354 407 10,700 -2,226 Descending Chicago Center
Wed 08:18:41 AM 42.4097 -88.6106 112° Southeast 321 369 9,400 -823 Descending Chicago Center
Wed 08:19:43 AM 42.3797 -88.5169 113° Southeast 280 322 9,000 -244 Descending Chicago Center
Wed 08:20:44 AM 42.3275 -88.4258 128° Southeast 279 321 8,900 -829 Descending Chicago Center
Wed 08:21:46 AM 42.2822 -88.3444 127° Southeast 273 314 7,300 -1,597 Descending Chicago Center
Wed 08:22:48 AM 42.2364 -88.2600 126° Southeast 276 318 5,600 -806 Descending Chicago Center
Wed 08:24:52 AM 42.1453 -88.1039 128° Southeast 266 306 4,800 -734 Descending Chicago Center
Wed 08:25:56 AM 42.0833 -88.0500 147° Southeast 225 259 3,300 -1,161 Descending Chicago TRACON
Wed 08:26:56 AM 42.0500 -88.0000 132° Southeast 194 223 2,400 -1,050 Descending Chicago TRACON
Wed 08:27:56 AM 42.0167 -87.9500 132° Southeast 139 160 1,200 -1,200 Descending Chicago TRACON
Wed 08:29:00 AM 41.9817 -87.9067 180° South  Level Estimated

Login

Don't have an account? Register now (free) for customized features, flight alerts, and more!